Time;durP1;ratioP1;P1;durP2;ratioP2;P2;SDS_P1;SDS_P2;PMS_P1;PMS_P2;Temp;Humidity;BMP_temperature;BMP_pressure;BME280_temperature;BME280_humidity;BME280_pressure;Samples;Min_cycle;Max_cycle;Signal;HPM_P1;HPM_P2
2022/04/05 00:02:02;;;;;;;16.65;2.38;;;7.20;99.90;;;;;;5033875;28;20509;-74
2022/04/05 00:04:31;;;;;;;14.20;2.22;;;7.20;99.90;;;;;;5016996;28;20394;-74
2022/04/05 00:06:57;;;;;;;15.55;2.33;;;7.20;99.90;;;;;;5033414;28;20033;-74
2022/04/05 00:09:22;;;;;;;20.48;2.72;;;7.20;99.90;;;;;;5032381;28;20046;-74
2022/04/05 00:11:48;;;;;;;27.77;2.95;;;7.20;99.90;;;;;;5031510;28;20041;-74
2022/04/05 00:14:14;;;;;;;22.13;2.72;;;7.30;99.90;;;;;;5032877;28;20089;-74
2022/04/05 00:16:40;;;;;;;12.80;3.05;;;7.20;99.90;;;;;;5035461;28;20049;-74
2022/04/05 00:19:05;;;;;;;17.70;2.78;;;7.10;99.90;;;;;;5035603;28;20389;-74
2022/04/05 00:21:31;;;;;;;20.98;2.72;;;7.10;99.90;;;;;;5035705;28;20044;-74
2022/04/05 00:23:57;;;;;;;20.83;2.53;;;7.10;99.90;;;;;;5053519;28;20043;-74
2022/04/05 00:26:23;;;;;;;18.88;2.53;;;7.10;99.90;;;;;;5050196;28;20417;-74
2022/04/05 00:28:48;;;;;;;16.75;2.55;;;7.10;99.90;;;;;;5031968;28;20072;-74
2022/04/05 00:31:14;;;;;;;22.60;3.05;;;7.10;99.90;;;;;;5015837;28;20045;-72
2022/04/05 00:33:40;;;;;;;15.65;2.67;;;7.10;99.90;;;;;;5033258;28;20481;-72
2022/04/05 00:36:06;;;;;;;20.02;3.22;;;7.00;99.90;;;;;;5015614;28;20037;-72
2022/04/05 00:38:32;;;;;;;19.15;3.00;;;7.30;99.90;;;;;;4999185;28;20076;-73
2022/04/05 00:40:58;;;;;;;18.95;2.83;;;7.00;99.90;;;;;;5018397;28;20405;-74
2022/04/05 00:43:24;;;;;;;17.05;2.88;;;7.00;99.90;;;;;;5052946;28;20076;-74
2022/04/05 00:45:50;;;;;;;17.65;2.58;;;7.00;99.90;;;;;;5017968;28;20122;-74
2022/04/05 00:48:40;;;;;;;23.85;3.10;;;7.20;99.90;;;;;;5035328;28;20041;-74
2022/04/05 00:51:05;;;;;;;20.40;2.97;;;7.00;99.90;;;;;;5034981;28;20041;-74
2022/04/05 00:53:33;;;;;;;28.60;2.80;;;7.10;99.90;;;;;;5018594;28;20137;-74
2022/04/05 00:56:03;;;;;;;24.83;3.20;;;6.60;99.90;;;;;;5034582;28;20457;-74
2022/04/05 00:58:34;;;;;;;20.80;2.70;;;7.90;99.90;;;;;;5018855;28;20496;-73
2022/04/05 01:01:00;;;;;;;25.52;2.67;;;7.10;99.90;;;;;;5001653;28;20456;-72
2022/04/05 01:03:27;;;;;;;19.15;3.17;;;7.10;99.90;;;;;;5034665;28;20551;-72
2022/04/05 01:05:53;;;;;;;16.60;2.90;;;7.00;99.90;;;;;;5052605;28;20048;-73
2022/04/05 01:08:21;;;;;;;19.23;3.33;;;7.00;99.90;;;;;;5034509;28;20497;-73
2022/04/05 01:10:47;;;;;;;18.70;2.75;;;7.00;99.90;;;;;;5052364;28;20037;-72
2022/04/05 01:13:13;;;;;;;24.38;2.83;;;7.10;99.90;;;;;;5052542;28;20124;-72
2022/04/05 01:15:39;;;;;;;28.13;2.97;;;6.30;99.90;;;;;;5001777;28;20132;-72
2022/04/05 01:18:05;;;;;;;22.88;3.13;;;6.90;99.90;;;;;;5034067;28;20045;-73
2022/04/05 01:20:32;;;;;;;22.77;2.90;;;7.00;99.90;;;;;;5034304;28;20359;-72
2022/04/05 01:22:58;;;;;;;19.38;3.42;;;7.00;99.90;;;;;;5017604;28;20048;-72
2022/04/05 01:25:24;;;;;;;26.40;3.58;;;7.00;99.90;;;;;;5034379;28;20041;-72
2022/04/05 01:27:51;;;;;;;27.08;3.20;;;7.00;99.90;;;;;;5052491;28;20362;-72
2022/04/05 01:30:17;;;;;;;26.23;3.28;;;6.90;99.90;;;;;;5034329;28;20049;-73
2022/04/05 01:32:43;;;;;;;25.23;3.58;;;7.50;99.90;;;;;;5034512;28;20119;-72
2022/04/05 01:35:10;;;;;;;22.77;3.03;;;6.90;99.90;;;;;;5033633;28;20112;-72
2022/04/05 01:37:39;;;;;;;18.33;2.65;;;6.90;99.90;;;;;;5052252;28;20037;-73
2022/04/05 01:40:05;;;;;;;28.02;2.83;;;6.90;99.90;;;;;;5021414;28;20036;-72
2022/04/05 01:42:33;;;;;;;23.33;2.92;;;6.80;99.90;;;;;;5022122;28;20094;-72
2022/04/05 01:44:59;;;;;;;20.58;2.83;;;6.80;99.90;;;;;;5056450;28;20404;-72
2022/04/05 01:47:25;;;;;;;19.58;2.50;;;6.70;99.90;;;;;;5056401;28;20044;-72
2022/04/05 01:49:51;;;;;;;23.40;3.08;;;6.90;99.90;;;;;;5056072;28;20163;-72
2022/04/05 01:52:17;;;;;;;29.40;3.28;;;7.00;99.90;;;;;;5037046;28;20047;-72
2022/04/05 01:54:43;;;;;;;25.80;2.97;;;6.70;99.90;;;;;;5038345;28;20481;-72
2022/04/05 01:57:09;;;;;;;24.00;2.97;;;6.70;99.90;;;;;;5056211;28;20104;-72
2022/04/05 01:59:38;;;;;;;24.95;2.92;;;6.70;99.90;;;;;;5021880;28;20119;-72
2022/04/05 02:02:09;;;;;;;31.70;2.92;;;6.70;99.90;;;;;;5037699;28;20052;-72
2022/04/05 02:04:36;;;;;;;23.35;3.33;;;6.70;99.90;;;;;;5037769;28;20044;-72
2022/04/05 02:07:17;;;;;;;29.95;3.30;;;6.70;99.90;;;;;;5037344;28;20036;-72
2022/04/05 02:09:45;;;;;;;31.25;3.20;;;6.70;99.90;;;;;;5055818;28;20370;-72
2022/04/05 02:12:11;;;;;;;34.63;3.38;;;6.70;99.90;;;;;;5055263;28;20055;-72
2022/04/05 02:14:38;;;;;;;23.77;3.42;;;6.80;99.90;;;;;;5037827;28;20116;-72
2022/04/05 02:17:05;;;;;;;20.30;2.78;;;6.70;99.90;;;;;;5055469;28;20040;-74
2022/04/05 02:19:31;;;;;;;31.60;3.38;;;7.00;99.90;;;;;;5055613;28;20509;-74
2022/04/05 02:21:57;;;;;;;25.15;2.58;;;6.60;99.90;;;;;;5054687;28;20037;-74
2022/04/05 02:24:23;;;;;;;29.75;3.40;;;6.60;99.90;;;;;;5038014;28;20455;-74
2022/04/05 02:26:49;;;;;;;23.92;2.90;;;6.60;99.90;;;;;;5037820;28;20045;-74
2022/04/05 02:29:15;;;;;;;24.30;2.63;;;6.60;99.90;;;;;;5055521;28;20033;-72
2022/04/05 02:31:41;;;;;;;20.77;2.75;;;6.60;99.90;;;;;;5055021;28;20120;-72
2022/04/05 02:34:08;;;;;;;31.25;3.42;;;6.60;99.90;;;;;;5055300;28;20087;-72
2022/04/05 02:36:34;;;;;;;27.15;3.20;;;6.60;99.90;;;;;;5037584;28;20125;-72
2022/04/05 02:39:00;;;;;;;24.95;3.40;;;6.60;99.90;;;;;;5036689;28;20444;-71
2022/04/05 02:41:27;;;;;;;32.05;3.83;;;6.60;99.90;;;;;;5037048;28;20041;-72
2022/04/05 02:43:53;;;;;;;30.58;3.20;;;6.60;99.90;;;;;;5037619;28;20052;-72
2022/04/05 02:46:19;;;;;;;27.27;3.40;;;6.60;99.90;;;;;;5054964;28;20048;-72
2022/04/05 02:48:46;;;;;;;27.70;3.75;;;6.70;99.90;;;;;;5020733;28;20041;-72
2022/04/05 02:51:15;;;;;;;27.88;3.10;;;6.70;99.90;;;;;;5036142;28;20131;-72
2022/04/05 02:53:42;;;;;;;26.35;3.00;;;6.70;99.90;;;;;;5036166;28;20121;-72
2022/04/05 02:56:09;;;;;;;25.23;3.28;;;6.70;99.90;;;;;;5055080;28;20041;-75
2022/04/05 02:58:38;;;;;;;34.25;3.85;;;7.00;99.90;;;;;;5054932;28;20528;-75
2022/04/05 03:01:04;;;;;;;26.23;3.85;;;6.70;99.90;;;;;;5037069;28;20367;-75
2022/04/05 03:03:30;;;;;;;23.58;3.53;;;6.70;99.90;;;;;;5019098;28;20049;-75
2022/04/05 03:05:56;;;;;;;35.92;3.72;;;6.60;99.90;;;;;;5037176;28;20051;-75
2022/04/05 03:08:22;;;;;;;30.55;3.72;;;6.60;99.90;;;;;;5054899;28;20065;-75
2022/04/05 03:10:48;;;;;;;26.10;3.45;;;6.60;99.90;;;;;;5019267;28;20049;-75
2022/04/05 03:13:16;;;;;;;34.25;4.05;;;7.10;99.90;;;;;;5054812;28;20033;-75
2022/04/05 03:15:42;;;;;;;42.17;4.10;;;6.70;99.90;;;;;;5020266;28;20052;-75
2022/04/05 03:18:13;;;;;;;29.48;3.60;;;6.70;99.90;;;;;;5036590;28;20036;-73
2022/04/05 03:20:39;;;;;;;35.65;3.50;;;6.70;99.90;;;;;;4988948;28;20045;-74
2022/04/05 03:23:05;;;;;;;28.60;3.92;;;6.70;99.90;;;;;;5020385;28;20033;-74
2022/04/05 03:25:33;;;;;;;24.35;3.60;;;6.70;99.90;;;;;;5054729;28;20032;-75
2022/04/05 03:28:03;;;;;;;26.27;3.50;;;6.70;99.90;;;;;;5035292;28;20040;-72
2022/04/05 03:30:30;;;;;;;25.80;3.30;;;6.70;99.90;;;;;;5036500;28;20198;-72
2022/04/05 03:32:55;;;;;;;26.95;3.25;;;6.70;99.90;;;;;;5054525;28;20095;-72
2022/04/05 03:35:21;;;;;;;23.63;3.53;;;6.70;99.90;;;;;;5019991;28;20037;-72
2022/04/05 03:37:47;;;;;;;23.42;3.53;;;6.80;99.90;;;;;;5054149;28;20033;-74
2022/04/05 03:40:13;;;;;;;16.90;3.83;;;6.80;99.90;;;;;;5054028;28;20123;-75
2022/04/05 03:42:39;;;;;;;33.72;3.25;;;6.50;99.90;;;;;;5054103;28;20045;-74
2022/04/05 03:45:06;;;;;;;19.40;3.60;;;6.60;99.90;;;;;;5018748;28;20045;-75
2022/04/05 03:47:31;;;;;;;26.38;4.03;;;6.50;99.90;;;;;;5019716;28;20064;-75
2022/04/05 03:49:57;;;;;;;28.65;3.85;;;6.60;99.90;;;;;;5019456;28;20092;-75
2022/04/05 03:52:23;;;;;;;25.80;3.35;;;6.60;99.90;;;;;;5053971;28;20086;-75
2022/04/05 03:54:49;;;;;;;27.05;3.58;;;6.60;99.90;;;;;;5035229;28;20041;-75
2022/04/05 03:57:15;;;;;;;21.77;3.42;;;6.60;99.90;;;;;;5053664;28;20102;-75
2022/04/05 03:59:41;;;;;;;21.90;3.42;;;6.70;99.90;;;;;;5019389;28;20044;-75
2022/04/05 04:02:07;;;;;;;24.50;3.78;;;6.50;99.90;;;;;;5051839;28;20424;-75
2022/04/05 04:04:32;;;;;;;21.75;3.47;;;6.50;99.90;;;;;;5053798;28;20067;-75
2022/04/05 04:06:58;;;;;;;32.60;4.40;;;7.40;99.90;;;;;;5019594;28;20120;-72
2022/04/05 04:09:25;;;;;;;28.05;3.95;;;6.60;99.90;;;;;;5035388;28;20451;-72
2022/04/05 04:11:51;;;;;;;27.23;4.18;;;6.60;99.90;;;;;;5053774;28;20420;-73
2022/04/05 04:14:17;;;;;;;25.92;4.10;;;6.60;99.90;;;;;;5053663;28;20044;-73
2022/04/05 04:16:42;;;;;;;24.77;4.07;;;6.70;99.90;;;;;;5052471;28;20135;-73
2022/04/05 04:19:08;;;;;;;37.42;4.55;;;6.70;99.90;;;;;;5035312;28;20045;-72
2022/04/05 04:21:34;;;;;;;36.30;5.38;;;6.70;99.90;;;;;;5018715;28;20048;-73
2022/04/05 04:24:00;;;;;;;31.23;4.75;;;6.60;99.90;;;;;;5035196;28;20048;-73
2022/04/05 04:26:26;;;;;;;35.58;4.65;;;6.60;99.90;;;;;;5035753;28;20044;-75
2022/04/05 04:28:55;;;;;;;26.63;3.63;;;6.70;99.90;;;;;;5052838;28;20120;-75
2022/04/05 04:31:24;;;;;;;27.35;3.42;;;6.60;99.90;;;;;;5053249;28;20041;-75
2022/04/05 04:33:50;;;;;;;29.17;4.15;;;6.60;99.90;;;;;;5053236;28;20040;-75
2022/04/05 04:36:15;;;;;;;37.78;3.83;;;6.60;99.90;;;;;;5052096;28;20033;-75
2022/04/05 04:38:41;;;;;;;26.25;3.60;;;6.60;99.90;;;;;;5018722;28;20036;-75
2022/04/05 04:41:07;;;;;;;39.17;4.38;;;6.60;99.90;;;;;;5053109;28;20040;-76
2022/04/05 04:43:33;;;;;;;26.55;3.53;;;6.70;99.90;;;;;;5034752;28;20040;-75
2022/04/05 04:45:59;;;;;;;37.15;4.60;;;6.60;99.90;;;;;;5053075;28;20044;-75
2022/04/05 04:48:25;;;;;;;37.13;4.90;;;6.70;99.90;;;;;;5035396;28;20037;-75
2022/04/05 04:50:50;;;;;;;33.58;4.90;;;7.30;99.90;;;;;;5034254;28;20493;-75
2022/04/05 04:53:16;;;;;;;30.30;3.75;;;6.60;99.90;;;;;;5001269;28;20044;-75
2022/04/05 04:55:42;;;;;;;31.48;4.00;;;7.20;99.90;;;;;;5034982;28;20443;-75
2022/04/05 04:58:08;;;;;;;25.50;3.50;;;6.70;99.90;;;;;;5052624;28;20045;-75
2022/04/05 05:00:34;;;;;;;34.22;3.60;;;6.70;99.90;;;;;;5034712;28;20492;-75
2022/04/05 05:02:59;;;;;;;32.30;3.60;;;6.80;99.90;;;;;;5034740;28;20041;-73
2022/04/05 05:05:25;;;;;;;32.13;4.50;;;6.80;99.90;;;;;;5052606;28;20102;-73
2022/04/05 05:07:52;;;;;;;34.75;4.20;;;6.60;99.90;;;;;;5034661;28;20044;-73
2022/04/05 05:10:20;;;;;;;28.70;3.90;;;6.70;99.90;;;;;;5033159;28;20055;-74
2022/04/05 05:12:47;;;;;;;27.25;3.85;;;6.80;99.90;;;;;;5001618;28;20068;-74
2022/04/05 05:15:17;;;;;;;35.00;4.47;;;7.00;99.90;;;;;;5014614;28;20054;-75
2022/04/05 05:17:44;;;;;;;23.27;5.00;;;6.70;99.90;;;;;;5014899;28;20042;-75
2022/04/05 05:20:11;;;;;;;36.63;4.90;;;6.70;99.90;;;;;;5014863;28;20574;-75
2022/04/05 05:22:37;;;;;;;25.73;3.50;;;6.70;99.90;;;;;;5030919;28;20049;-75
2022/04/05 05:25:03;;;;;;;27.88;4.30;;;6.70;99.90;;;;;;5029855;28;20037;-75
2022/04/05 05:27:29;;;;;;;27.92;4.63;;;6.70;99.90;;;;;;4998324;28;20513;-75
2022/04/05 05:29:55;;;;;;;31.42;4.43;;;6.70;99.90;;;;;;5032278;28;20478;-75
2022/04/05 05:32:21;;;;;;;34.33;4.45;;;6.80;99.90;;;;;;5032353;28;20087;-75
2022/04/05 05:34:47;;;;;;;22.67;3.33;;;6.90;99.90;;;;;;5032105;28;20053;-75
2022/04/05 05:37:13;;;;;;;27.45;4.88;;;6.70;99.90;;;;;;5031251;28;20390;-75
2022/04/05 05:39:39;;;;;;;30.90;4.80;;;6.70;99.90;;;;;;5031928;28;20483;-75
2022/04/05 05:42:07;;;;;;;26.15;5.03;;;6.80;99.90;;;;;;5013296;28;20045;-75
2022/04/05 05:44:33;;;;;;;30.63;4.80;;;6.80;99.90;;;;;;5014290;28;20045;-72
2022/04/05 05:47:00;;;;;;;23.23;3.95;;;6.80;99.90;;;;;;5032412;28;20053;-72
2022/04/05 05:49:26;;;;;;;39.20;4.05;;;6.80;99.90;;;;;;5030815;28;20053;-72
2022/04/05 05:51:51;;;;;;;29.70;4.00;;;6.90;99.90;;;;;;5031620;28;20111;-72
2022/04/05 05:54:18;;;;;;;23.00;4.18;;;7.30;99.90;;;;;;5031277;28;20040;-72
2022/04/05 05:56:44;;;;;;;27.40;3.70;;;6.90;99.90;;;;;;5030634;28;20149;-73
2022/04/05 05:59:30;;;;;;;26.88;4.15;;;6.90;99.90;;;;;;5031354;28;20390;-72
2022/04/05 06:01:56;;;;;;;32.78;4.95;;;7.00;99.90;;;;;;5030316;28;20053;-75
2022/04/05 06:04:22;;;;;;;35.13;4.18;;;7.00;99.90;;;;;;5031687;28;20048;-73
2022/04/05 06:06:48;;;;;;;26.92;3.60;;;7.00;99.90;;;;;;5030325;28;20045;-74
2022/04/05 06:09:13;;;;;;;16.40;2.97;;;7.00;99.90;;;;;;5030542;28;20561;-75
2022/04/05 06:11:39;;;;;;;26.13;4.00;;;7.50;99.90;;;;;;5029291;28;20069;-78
2022/04/05 06:14:05;;;;;;;26.63;4.95;;;7.00;99.90;;;;;;4998108;28;20033;-71
2022/04/05 06:16:31;;;;;;;28.33;5.82;;;7.00;99.90;;;;;;5014056;28;20133;-72
2022/04/05 06:18:56;;;;;;;22.40;5.75;;;7.00;99.90;;;;;;5030721;28;20069;-78
2022/04/05 06:21:22;;;;;;;21.92;4.88;;;7.10;99.90;;;;;;5031753;28;20098;-78
2022/04/05 06:23:48;;;;;;;24.17;5.18;;;7.10;99.90;;;;;;4997544;28;20143;-79
2022/04/05 06:26:14;;;;;;;27.65;3.67;;;7.10;99.90;;;;;;5020945;28;20057;-80
2022/04/05 06:28:39;;;;;;;27.63;3.45;;;7.10;99.90;;;;;;5016703;28;20048;-78
2022/04/05 06:31:05;;;;;;;27.45;3.50;;;7.10;99.90;;;;;;5035534;28;20034;-79
2022/04/05 06:33:32;;;;;;;17.60;3.47;;;7.10;99.90;;;;;;5035299;28;20041;-79
2022/04/05 06:35:59;;;;;;;24.92;3.20;;;7.10;99.90;;;;;;5035296;28;20049;-79
2022/04/05 06:38:26;;;;;;;21.33;3.78;;;7.30;99.90;;;;;;5017037;28;20126;-78
2022/04/05 06:40:54;;;;;;;36.60;4.20;;;7.20;99.90;;;;;;5034198;28;20052;-72
2022/04/05 06:43:23;;;;;;;31.40;3.67;;;7.20;99.90;;;;;;5033592;28;20444;-72
2022/04/05 06:45:52;;;;;;;36.63;3.95;;;7.20;99.90;;;;;;5035321;28;20115;-72
2022/04/05 06:48:19;;;;;;;29.60;3.97;;;7.20;99.90;;;;;;5017180;28;20049;-71
2022/04/05 06:50:44;;;;;;;20.00;3.25;;;7.30;99.90;;;;;;5033958;28;20433;-81
2022/04/05 06:53:10;;;;;;;31.80;3.85;;;7.30;99.90;;;;;;5033439;28;20034;-73
2022/04/05 06:55:37;;;;;;;31.35;4.13;;;7.30;99.90;;;;;;5033670;28;20426;-71
2022/04/05 06:58:03;;;;;;;28.85;3.90;;;7.40;99.90;;;;;;5020968;28;20045;-72
2022/04/05 07:00:29;;;;;;;25.23;3.92;;;7.40;99.90;;;;;;5032433;28;20038;-74
2022/04/05 07:02:57;;;;;;;30.52;3.65;;;7.40;99.90;;;;;;5033452;28;20045;-72
2022/04/05 07:05:23;;;;;;;25.08;3.90;;;7.40;99.90;;;;;;5016812;28;20395;-71
2022/04/05 07:07:52;;;;;;;22.85;4.25;;;7.40;99.90;;;;;;5016445;28;20037;-72
2022/04/05 07:10:19;;;;;;;37.55;3.97;;;7.50;99.90;;;;;;5034866;28;20068;-71
2022/04/05 07:12:46;;;;;;;25.35;3.50;;;7.50;99.90;;;;;;5016328;28;20038;-71
2022/04/05 07:15:12;;;;;;;21.08;3.33;;;7.60;99.90;;;;;;5038740;28;20091;-69
2022/04/05 07:17:39;;;;;;;22.52;3.72;;;7.60;99.90;;;;;;5054417;28;20405;-71
2022/04/05 07:20:08;;;;;;;23.58;3.88;;;7.60;99.90;;;;;;5036468;28;20497;-71
2022/04/05 07:22:37;;;;;;;20.63;3.05;;;7.70;99.90;;;;;;5054431;28;20094;-71
2022/04/05 07:25:04;;;;;;;28.63;4.03;;;7.60;99.90;;;;;;5035843;28;20124;-71
2022/04/05 07:27:29;;;;;;;21.30;3.25;;;7.60;99.90;;;;;;5034537;28;20037;-71
2022/04/05 07:29:55;;;;;;;16.65;3.20;;;7.60;99.90;;;;;;5035891;28;20503;-71
2022/04/05 07:32:21;;;;;;;19.88;4.07;;;7.60;99.90;;;;;;5035553;28;20045;-71
2022/04/05 07:34:47;;;;;;;19.30;3.45;;;8.30;99.90;;;;;;5054425;28;20044;-71
2022/04/05 07:37:12;;;;;;;29.98;3.78;;;7.60;99.90;;;;;;5053778;28;20043;-71
2022/04/05 07:39:40;;;;;;;15.98;3.60;;;7.60;99.90;;;;;;5019300;28;20033;-71
2022/04/05 07:42:07;;;;;;;17.65;3.50;;;7.60;99.90;;;;;;5053001;28;20036;-71
2022/04/05 07:44:33;;;;;;;20.05;3.50;;;7.60;99.90;;;;;;5019309;28;20036;-71
2022/04/05 07:46:58;;;;;;;26.63;4.32;;;7.60;99.90;;;;;;5035629;28;20126;-71
2022/04/05 07:49:25;;;;;;;21.38;3.63;;;7.80;99.90;;;;;;5016693;28;20069;-71
2022/04/05 07:51:50;;;;;;;19.90;3.78;;;7.60;99.90;;;;;;5053114;28;20412;-71
2022/04/05 07:54:16;;;;;;;18.58;3.35;;;7.60;99.90;;;;;;5034973;28;20047;-71
2022/04/05 07:56:42;;;;;;;14.73;3.30;;;7.60;99.90;;;;;;5053072;28;20432;-71
2022/04/05 07:59:08;;;;;;;17.58;3.22;;;7.60;99.90;;;;;;5035371;28;20500;-70
2022/04/05 08:01:33;;;;;;;20.15;3.78;;;7.60;99.90;;;;;;5035199;28;20087;-71
2022/04/05 08:03:59;;;;;;;26.70;4.07;;;7.60;99.90;;;;;;5035547;28;20098;-74
2022/04/05 08:06:27;;;;;;;19.05;3.90;;;7.60;99.90;;;;;;5018953;28;20040;-72
2022/04/05 08:08:53;;;;;;;13.77;3.35;;;7.60;99.90;;;;;;5035402;28;20347;-73
2022/04/05 08:11:19;;;;;;;19.55;3.38;;;7.70;99.90;;;;;;5018735;28;20393;-71
2022/04/05 08:13:45;;;;;;;21.05;3.53;;;7.70;99.90;;;;;;5053485;28;20068;-71
2022/04/05 08:16:10;;;;;;;18.45;3.03;;;7.80;99.90;;;;;;5053099;28;20493;-72
2022/04/05 08:18:36;;;;;;;21.67;3.78;;;7.70;99.90;;;;;;5052323;28;20096;-74
2022/04/05 08:21:02;;;;;;;19.15;3.22;;;7.80;99.90;;;;;;5034254;28;20045;-75
2022/04/05 08:23:28;;;;;;;17.85;3.47;;;7.80;99.90;;;;;;5021791;28;20040;-75
2022/04/05 08:25:54;;;;;;;19.58;3.55;;;7.70;99.90;;;;;;5053033;28;20139;-74
2022/04/05 08:28:19;;;;;;;20.98;3.35;;;7.70;99.90;;;;;;5035240;28;20417;-74
2022/04/05 08:30:47;;;;;;;16.95;3.22;;;7.80;99.90;;;;;;5034726;28;20036;-73
2022/04/05 08:33:13;;;;;;;19.42;3.30;;;7.70;99.90;;;;;;5052530;28;20044;-75
2022/04/05 08:35:39;;;;;;;16.55;3.75;;;7.90;99.90;;;;;;5034951;28;20457;-75
2022/04/05 08:38:06;;;;;;;20.58;3.45;;;7.70;99.90;;;;;;5034674;28;20060;-76
2022/04/05 08:40:32;;;;;;;18.60;3.53;;;7.70;99.90;;;;;;5052846;28;20051;-73
2022/04/05 08:42:58;;;;;;;17.27;3.53;;;7.70;99.90;;;;;;5052869;28;20076;-72
2022/04/05 08:45:26;;;;;;;18.85;3.20;;;7.70;99.90;;;;;;5034305;28;20048;-72
2022/04/05 08:47:58;;;;;;;16.55;3.53;;;7.80;99.90;;;;;;5034050;28;20048;-72
2022/04/05 08:50:32;;;;;;;17.67;3.47;;;7.80;99.90;;;;;;5052142;28;20037;-72
2022/04/05 08:53:00;;;;;;;19.98;3.50;;;7.90;99.90;;;;;;5051863;28;20037;-72
2022/04/05 08:55:28;;;;;;;21.20;3.33;;;7.90;99.90;;;;;;5052708;28;20076;-72
2022/04/05 08:57:56;;;;;;;19.45;4.20;;;8.00;99.90;;;;;;5052755;28;20382;-73
2022/04/05 09:00:23;;;;;;;20.23;3.75;;;8.00;99.90;;;;;;5052358;28;20095;-72
2022/04/05 09:03:07;;;;;;;21.30;3.95;;;8.00;99.90;;;;;;5052304;28;20136;-73
2022/04/05 09:05:38;;;;;;;24.45;3.75;;;8.00;99.90;;;;;;5041672;28;20135;-71
2022/04/05 09:08:16;;;;;;;16.95;3.35;;;8.00;99.90;;;;;;5017795;28;20044;-72
2022/04/05 09:10:44;;;;;;;17.17;4.05;;;8.10;99.90;;;;;;5034459;28;20044;-72
2022/04/05 09:13:17;;;;;;;17.90;3.50;;;8.10;99.90;;;;;;5017762;28;20045;-71
2022/04/05 09:15:47;;;;;;;9.15;2.80;;;8.20;99.90;;;;;;5051671;28;20053;-72
2022/04/05 09:18:13;;;;;;;12.52;2.80;;;8.30;99.90;;;;;;5034777;28;20432;-72
2022/04/05 09:20:47;;;;;;;14.30;2.83;;;8.30;99.90;;;;;;5052414;28;20041;-72
2022/04/05 09:23:38;;;;;;;10.35;3.00;;;8.40;99.90;;;;;;5034239;28;20098;-72
2022/04/05 09:26:13;;;;;;;11.65;2.40;;;8.40;99.90;;;;;;5051195;28;20037;-71
2022/04/05 09:28:44;;;;;;;10.60;2.35;;;8.50;99.90;;;;;;5034131;28;20497;-72
2022/04/05 09:31:15;;;;;;;8.50;2.40;;;8.50;99.90;;;;;;5034498;28;20059;-76
2022/04/05 09:34:16;;;;;;;8.25;2.13;;;9.20;99.90;;;;;;5052262;28;20125;-78
2022/04/05 09:36:48;;;;;;;9.45;2.28;;;8.50;99.90;;;;;;5019779;28;20036;-76
2022/04/05 09:39:22;;;;;;;8.65;3.10;;;8.50;99.90;;;;;;5017609;28;20052;-72
2022/04/05 09:42:10;;;;;;;12.27;2.50;;;8.50;99.90;;;;;;5034217;28;20051;-75
2022/04/05 09:44:38;;;;;;;7.43;2.38;;;8.50;99.90;;;;;;5017790;28;20083;-75
2022/04/05 09:47:19;;;;;;;13.45;2.78;;;8.50;99.90;;;;;;5014534;28;20488;-75
2022/04/05 09:49:47;;;;;;;14.15;2.67;;;8.50;99.90;;;;;;5032182;28;20041;-74
2022/04/05 09:52:34;;;;;;;7.97;2.53;;;8.50;99.90;;;;;;5014671;28;20045;-74
2022/04/05 09:55:15;;;;;;;8.63;2.45;;;8.60;99.90;;;;;;4981004;28;20042;-74
2022/04/05 09:57:42;;;;;;;12.25;2.53;;;8.50;99.90;;;;;;4998232;28;20179;-74
2022/04/05 10:00:14;;;;;;;10.10;2.42;;;8.70;99.90;;;;;;5016758;28;20049;-75
2022/04/05 10:03:05;;;;;;;9.55;2.75;;;8.50;99.90;;;;;;5002244;28;20112;-75
2022/04/05 10:05:33;;;;;;;13.38;3.25;;;8.50;99.90;;;;;;5050478;28;20489;-75
2022/04/05 10:07:59;;;;;;;10.45;2.47;;;8.50;99.90;;;;;;5038362;28;20041;-75
2022/04/05 10:10:25;;;;;;;17.20;3.28;;;8.50;99.90;;;;;;5055868;28;20100;-75
2022/04/05 10:12:52;;;;;;;11.93;2.88;;;8.50;99.90;;;;;;5021664;28;20055;-75
2022/04/05 10:15:21;;;;;;;9.07;3.20;;;8.50;99.90;;;;;;5034504;28;20053;-75
2022/04/05 10:17:49;;;;;;;13.68;3.72;;;8.50;99.90;;;;;;5018581;28;20045;-75
2022/04/05 10:20:17;;;;;;;8.27;2.70;;;8.60;99.90;;;;;;5032460;28;20144;-75
2022/04/05 10:22:44;;;;;;;14.77;3.78;;;9.40;99.90;;;;;;5034958;28;20056;-75
2022/04/05 10:25:10;;;;;;;7.70;2.90;;;8.80;99.90;;;;;;5017943;28;20053;-75
2022/04/05 10:27:36;;;;;;;11.13;2.95;;;8.60;99.90;;;;;;5017788;28;20124;-75
2022/04/05 10:30:15;;;;;;;7.30;2.75;;;8.60;99.90;;;;;;5034319;28;20124;-75
2022/04/05 10:32:56;;;;;;;8.57;3.17;;;8.60;99.90;;;;;;5035596;28;20504;-75
2022/04/05 10:35:24;;;;;;;6.72;3.70;;;8.60;99.90;;;;;;5034155;28;20048;-75
2022/04/05 10:37:52;;;;;;;6.60;2.88;;;8.60;99.90;;;;;;5032443;28;20033;-75
2022/04/05 10:40:20;;;;;;;8.88;2.67;;;8.50;99.90;;;;;;5017761;28;20061;-75
2022/04/05 10:42:47;;;;;;;5.88;2.83;;;8.50;99.90;;;;;;5035248;28;20041;-75
2022/04/05 10:45:23;;;;;;;5.95;2.35;;;8.60;99.90;;;;;;5035185;28;20037;-75
2022/04/05 10:48:18;;;;;;;8.30;2.47;;;8.60;99.90;;;;;;5033962;28;20425;-75
2022/04/05 10:51:09;;;;;;;7.43;2.42;;;8.60;99.90;;;;;;5015288;28;20536;-75
2022/04/05 10:56:29;;;;;;;3.63;2.10;;;8.70;99.90;;;;;;5032618;28;20049;-75
2022/04/05 10:58:55;;;;;;;4.22;1.95;;;8.80;99.90;;;;;;5034168;28;20461;-75
2022/04/05 11:01:23;;;;;;;2.70;1.70;;;8.80;99.90;;;;;;5035095;28;20088;-75
2022/04/05 11:04:14;;;;;;;10.93;2.00;;;9.00;99.90;;;;;;5033705;28;20049;-75
2022/04/05 11:07:01;;;;;;;4.57;1.90;;;8.90;99.90;;;;;;5017127;28;20049;-75
2022/04/05 11:09:32;;;;;;;3.67;1.98;;;8.90;99.90;;;;;;5017310;28;20456;-75
2022/04/05 11:12:04;;;;;;;2.40;1.70;;;8.90;99.90;;;;;;5014579;28;20331;-75
2022/04/05 11:14:43;;;;;;;3.78;1.77;;;8.90;99.90;;;;;;5034829;28;20029;-75
2022/04/05 11:17:12;;;;;;;4.40;1.83;;;8.90;99.90;;;;;;5053259;28;20413;-75
2022/04/05 11:19:40;;;;;;;5.00;2.15;;;8.90;99.90;;;;;;5054666;28;20052;-75
2022/04/05 11:22:22;;;;;;;4.32;2.10;;;8.90;99.90;;;;;;5054518;28;20049;-75
2022/04/05 11:25:19;;;;;;;3.25;2.10;;;8.90;99.90;;;;;;5055006;28;20037;-75
2022/04/05 11:27:49;;;;;;;4.45;1.90;;;8.90;99.90;;;;;;5034495;28;20037;-75
2022/04/05 11:30:22;;;;;;;4.57;2.60;;;8.90;99.90;;;;;;5054331;28;20045;-75
2022/04/05 11:33:06;;;;;;;5.53;2.45;;;8.90;99.90;;;;;;5020319;28;20461;-75
2022/04/05 11:35:36;;;;;;;4.28;2.50;;;9.00;99.90;;;;;;5036379;28;20044;-75
2022/04/05 11:38:02;;;;;;;3.55;1.92;;;9.10;99.90;;;;;;5036552;28;20045;-74
2022/04/05 11:40:30;;;;;;;3.53;1.73;;;9.10;99.90;;;;;;5019771;28;20052;-74
2022/04/05 11:43:04;;;;;;;2.65;1.55;;;9.20;99.90;;;;;;5036646;28;20394;-74
2022/04/05 11:45:30;;;;;;;4.07;2.03;;;9.40;99.90;;;;;;5018863;28;20224;-74
2022/04/05 11:47:56;;;;;;;5.28;1.80;;;9.20;99.90;;;;;;5003543;28;20043;-76
2022/04/05 11:50:23;;;;;;;4.47;2.40;;;9.20;99.90;;;;;;5019848;28;20080;-75
2022/04/05 11:52:49;;;;;;;2.58;1.80;;;9.20;99.90;;;;;;5035878;28;20040;-74
2022/04/05 11:58:03;;;;;;;3.35;2.05;;;9.20;99.90;;;;;;5053748;28;20362;-76
2022/04/05 12:00:30;;;;;;;2.25;1.52;;;9.20;99.90;;;;;;5034871;28;20041;-74
2022/04/05 12:03:10;;;;;;;2.78;1.73;;;9.20;99.90;;;;;;5019186;28;20393;-72
2022/04/05 12:05:46;;;;;;;3.83;2.22;;;9.20;99.90;;;;;;5018892;28;20497;-74
2022/04/05 12:08:13;;;;;;;4.55;3.00;;;9.30;99.90;;;;;;5035733;28;20068;-72
2022/04/05 12:10:44;;;;;;;2.95;2.20;;;9.30;99.90;;;;;;5035294;28;20052;-72
2022/04/05 12:13:10;;;;;;;2.63;2.25;;;9.50;99.90;;;;;;5039280;28;20045;-74
2022/04/05 12:15:37;;;;;;;3.55;2.30;;;9.40;99.90;;;;;;5053163;28;20057;-73
2022/04/05 12:18:20;;;;;;;2.05;1.75;;;9.50;99.90;;;;;;5033199;28;20044;-73
2022/04/05 12:21:03;;;;;;;3.60;2.60;;;9.70;99.90;;;;;;5055477;28;20051;-73
2022/04/05 12:23:35;;;;;;;4.57;2.83;;;9.60;99.90;;;;;;5054541;28;20051;-73
2022/04/05 12:26:01;;;;;;;3.08;2.50;;;9.70;99.90;;;;;;5036094;28;20047;-73
2022/04/05 12:28:27;;;;;;;3.33;2.53;;;9.80;99.90;;;;;;5052977;28;20049;-73
2022/04/05 12:30:53;;;;;;;4.43;2.60;;;9.80;99.90;;;;;;5026550;28;20044;-74
2022/04/05 12:33:25;;;;;;;3.08;2.13;;;10.10;99.90;;;;;;5002582;28;20098;-74
2022/04/05 12:35:50;;;;;;;3.20;2.30;;;9.80;99.90;;;;;;5018831;28;20037;-73
2022/04/05 12:38:16;;;;;;;2.70;2.30;;;9.90;99.90;;;;;;5052790;28;20033;-73
2022/04/05 12:40:42;;;;;;;3.15;2.40;;;9.90;99.90;;;;;;5053108;28;20461;-73
2022/04/05 12:43:22;;;;;;;3.60;2.65;;;10.00;99.90;;;;;;5018804;28;20048;-75
2022/04/05 12:45:49;;;;;;;3.40;2.22;;;10.00;99.90;;;;;;5034020;28;20048;-75
2022/04/05 12:48:19;;;;;;;4.40;2.65;;;10.00;99.90;;;;;;5034882;28;20056;-75
2022/04/05 12:50:51;;;;;;;2.92;2.42;;;10.00;99.90;;;;;;5053092;28;20045;-76
2022/04/05 12:53:35;;;;;;;3.17;2.63;;;10.10;99.90;;;;;;5018394;28;20098;-80
2022/04/05 12:56:09;;;;;;;3.38;2.50;;;10.10;99.90;;;;;;5034589;28;20060;-77
2022/04/05 12:59:09;;;;;;;4.97;2.80;;;10.00;99.90;;;;;;5035172;28;20090;-77
2022/04/05 13:01:40;;;;;;;6.15;2.88;;;9.80;99.90;;;;;;5025074;28;20045;-76